PAKH

Akhiok Airport

Akhiok, Alaska, USA
METAR PAKH 172122Z AUTO 20014G21KT 10SM FEW018 SCT026 11/07 A2960 RMK AO2 $
Observed Flight Rules
Oct-17 @ 21:22 UTC (11 minutes ago) Visual Flight Rules
Wind Visibility Clouds
200° at 14 knots
 Gusting to 21 knots
10 miles
  • Few at 1,800' AGL
  • Scattered at 2,600' AGL
Temperatures Readings
Current 11°C / 52°F
Dewpoint 7°C / 45°F
Humidity 77%
Altimeter 29.6" Hg
Pressure 1002 hPa
Elevation 14
METAR PAKH 172122Z AUTO 20014G21KT 10SM FEW018 SCT026 11/07 A2960 RMK AO2 $
Observed Flight Rules
Oct-17 @ 21:22 UTC
(11 minutes ago)
VFR
Wind Visibility
200° at 14 knots
 Gusting to 21 knots
10 miles
Clouds
  • Few at 1,800' AGL
  • Scattered at 2,600' AGL
Temperature Dewpoint
11°C / 52°F 7°C / 45°F
Humidity Altimeter Pressure
77% 29.6" Hg 1002 hPa